Time;durP1;ratioP1;P1;durP2;ratioP2;P2;SDS_P1;SDS_P2;PMS_P1;PMS_P2;Temp;Humidity;BMP_temperature;BMP_pressure;BME280_temperature;BME280_humidity;BME280_pressure;Samples;Min_cycle;Max_cycle;Signal;HPM_P1;HPM_P2
2022/03/09 00:00:05;;;;;;;6.25;4.50;;;;;;;;;;4938753;29;20412;-73
2022/03/09 00:02:31;;;;;;;8.20;5.10;;;;;;;;;;4937339;29;20039;-73
2022/03/09 00:04:57;;;;;;;6.38;4.43;;;;;;;;;;4938348;29;20054;-73
2022/03/09 00:07:23;;;;;;;4.70;3.88;;;;;;;;;;4937438;29;20027;-73
2022/03/09 00:09:49;;;;;;;5.45;4.07;;;;;;;;;;4938839;29;20031;-73
2022/03/09 00:12:15;;;;;;;5.25;4.22;;;;;;;;;;4937909;29;20122;-73
2022/03/09 00:14:41;;;;;;;5.22;4.05;;;;;;;;;;4938507;29;20032;-73
2022/03/09 00:17:07;;;;;;;6.53;4.65;;;;;;;;;;4938564;29;20028;-73
2022/03/09 00:19:33;;;;;;;6.03;4.78;;;;;;;;;;4938555;29;20039;-73
2022/03/09 00:21:59;;;;;;;4.55;4.15;;;;;;;;;;4937957;29;20032;-73
2022/03/09 00:24:26;;;;;;;5.93;4.45;;;;;;;;;;4938157;28;20035;-73
2022/03/09 00:26:52;;;;;;;4.90;4.00;;;;;;;;;;4938287;28;20060;-73
2022/03/09 00:29:18;;;;;;;6.13;4.45;;;;;;;;;;4938329;29;20028;-73
2022/03/09 00:31:44;;;;;;;5.60;3.92;;;;;;;;;;4937434;29;20028;-73
2022/03/09 00:34:10;;;;;;;6.50;4.00;;;;;;;;;;4968600;28;20024;-73
2022/03/09 00:36:36;;;;;;;5.82;4.40;;;;;;;;;;4937694;29;20106;-73
2022/03/09 00:39:03;;;;;;;6.00;4.20;;;;;;;;;;4968517;28;20446;-73
2022/03/09 00:41:29;;;;;;;4.40;3.80;;;;;;;;;;4937352;28;20079;-73
2022/03/09 00:43:55;;;;;;;4.93;4.28;;;;;;;;;;4938217;29;20431;-73
2022/03/09 00:46:21;;;;;;;6.05;4.50;;;;;;;;;;4936574;29;20432;-73
2022/03/09 00:48:47;;;;;;;5.10;3.92;;;;;;;;;;4937761;29;20399;-73
2022/03/09 00:51:13;;;;;;;6.15;4.40;;;;;;;;;;4937677;29;20102;-73
2022/03/09 00:53:40;;;;;;;5.75;4.07;;;;;;;;;;4937054;29;20031;-73
2022/03/09 00:56:06;;;;;;;4.60;3.72;;;;;;;;;;4937686;28;20103;-73
2022/03/09 00:58:32;;;;;;;5.28;4.05;;;;;;;;;;4937228;29;20031;-73
2022/03/09 01:00:58;;;;;;;5.68;4.15;;;;;;;;;;4937514;29;20059;-73
2022/03/09 01:03:24;;;;;;;5.50;4.00;;;;;;;;;;4937023;28;20067;-73
2022/03/09 01:05:50;;;;;;;5.57;4.00;;;;;;;;;;4937796;28;20030;-73
2022/03/09 01:08:16;;;;;;;8.25;4.40;;;;;;;;;;4937432;28;20456;-73
2022/03/09 01:10:43;;;;;;;5.15;4.32;;;;;;;;;;4937378;28;20047;-73
2022/03/09 01:13:09;;;;;;;5.05;3.92;;;;;;;;;;4937163;29;20078;-73
2022/03/09 01:15:35;;;;;;;5.53;4.28;;;;;;;;;;4937238;28;20019;-73
2022/03/09 01:18:01;;;;;;;5.20;4.25;;;;;;;;;;4937184;29;20094;-73
2022/03/09 01:20:27;;;;;;;5.80;4.38;;;;;;;;;;4936955;28;20064;-73
2022/03/09 01:22:53;;;;;;;5.55;3.78;;;;;;;;;;4936908;29;20028;-73
2022/03/09 01:25:20;;;;;;;5.57;4.50;;;;;;;;;;4937390;28;20031;-73
2022/03/09 01:27:46;;;;;;;6.60;4.45;;;;;;;;;;4937153;29;20039;-73
2022/03/09 01:30:12;;;;;;;4.82;3.88;;;;;;;;;;4937019;29;20034;-73
2022/03/09 01:32:38;;;;;;;5.22;3.85;;;;;;;;;;4937176;29;20476;-73
2022/03/09 01:35:04;;;;;;;6.53;4.80;;;;;;;;;;4936841;28;20024;-73
2022/03/09 01:37:30;;;;;;;4.85;4.22;;;;;;;;;;4936630;29;20106;-73
2022/03/09 01:39:56;;;;;;;5.13;4.45;;;;;;;;;;4936433;28;20032;-73
2022/03/09 01:42:23;;;;;;;5.20;4.25;;;;;;;;;;4936181;28;20032;-73
2022/03/09 01:44:49;;;;;;;5.38;4.35;;;;;;;;;;4936501;29;20554;-73
2022/03/09 01:47:15;;;;;;;6.07;4.40;;;;;;;;;;4936963;29;20027;-73
2022/03/09 01:49:41;;;;;;;4.93;3.92;;;;;;;;;;4936606;29;20067;-73
2022/03/09 01:52:07;;;;;;;6.03;4.50;;;;;;;;;;4936106;29;20031;-73
2022/03/09 01:54:33;;;;;;;4.55;4.00;;;;;;;;;;4936815;29;20587;-73
2022/03/09 01:57:00;;;;;;;5.40;4.15;;;;;;;;;;4967529;28;20503;-73
2022/03/09 01:59:26;;;;;;;5.03;4.28;;;;;;;;;;4936520;29;20055;-73
2022/03/09 02:01:53;;;;;;;6.97;4.10;;;;;;;;;;4966961;28;20079;-73
2022/03/09 02:04:19;;;;;;;5.93;4.53;;;;;;;;;;4936308;29;20063;-73
2022/03/09 02:06:46;;;;;;;5.72;4.35;;;;;;;;;;4967228;28;20507;-73
2022/03/09 02:11:57;;;;;;;5.57;4.25;;;;;;;;;;4936232;29;20571;-73
2022/03/09 02:14:27;;;;;;;5.53;4.07;;;;;;;;;;4967161;28;20024;-73
2022/03/09 02:16:53;;;;;;;6.72;4.60;;;;;;;;;;4967028;28;20115;-73
2022/03/09 02:19:19;;;;;;;5.57;3.97;;;;;;;;;;4933153;28;20031;-73
2022/03/09 02:21:46;;;;;;;4.95;4.03;;;;;;;;;;4935852;29;20028;-73
2022/03/09 02:24:13;;;;;;;4.90;3.95;;;;;;;;;;4934885;29;20024;-73
2022/03/09 02:26:39;;;;;;;4.32;3.92;;;;;;;;;;4936065;29;20031;-73
2022/03/09 02:29:05;;;;;;;4.45;4.05;;;;;;;;;;4935870;29;20047;-73
2022/03/09 02:31:31;;;;;;;4.78;3.88;;;;;;;;;;4935673;29;20055;-73
2022/03/09 02:33:57;;;;;;;4.60;3.88;;;;;;;;;;4936054;29;20079;-73
2022/03/09 02:36:23;;;;;;;4.68;3.97;;;;;;;;;;4966579;28;20500;-73
2022/03/09 02:38:49;;;;;;;4.90;4.03;;;;;;;;;;4935842;29;20525;-73
2022/03/09 02:41:16;;;;;;;5.88;4.50;;;;;;;;;;4935620;29;20533;-73
2022/03/09 02:43:42;;;;;;;4.63;4.13;;;;;;;;;;4935439;29;20012;-73
2022/03/09 02:46:08;;;;;;;5.78;4.32;;;;;;;;;;4936065;29;20055;-73
2022/03/09 02:48:34;;;;;;;5.32;4.15;;;;;;;;;;4936039;28;20423;-73
2022/03/09 02:51:00;;;;;;;4.72;4.32;;;;;;;;;;4935605;29;20099;-73
2022/03/09 02:53:26;;;;;;;5.00;4.40;;;;;;;;;;4934958;29;20670;-73
2022/03/09 02:55:52;;;;;;;4.75;4.25;;;;;;;;;;4935658;29;20503;-73
2022/03/09 02:58:18;;;;;;;5.35;4.30;;;;;;;;;;4935838;28;20051;-73
2022/03/09 03:00:45;;;;;;;5.07;4.50;;;;;;;;;;4935713;28;20038;-73
2022/03/09 03:03:11;;;;;;;4.43;4.00;;;;;;;;;;4934752;29;20403;-73
2022/03/09 03:05:37;;;;;;;4.65;4.15;;;;;;;;;;4935612;29;20469;-73
2022/03/09 03:08:03;;;;;;;4.45;3.95;;;;;;;;;;4935752;28;20031;-73
2022/03/09 03:10:29;;;;;;;5.38;4.45;;;;;;;;;;4935745;28;20031;-73
2022/03/09 03:12:55;;;;;;;5.20;4.28;;;;;;;;;;4935606;29;20024;-73
2022/03/09 03:15:21;;;;;;;4.38;3.97;;;;;;;;;;4935373;29;20119;-73
2022/03/09 03:17:47;;;;;;;5.13;4.13;;;;;;;;;;4935200;28;20058;-73
2022/03/09 03:20:13;;;;;;;4.30;3.90;;;;;;;;;;4935303;28;20036;-73
2022/03/09 03:22:39;;;;;;;5.80;4.30;;;;;;;;;;4935532;28;20028;-73
2022/03/09 03:25:05;;;;;;;6.43;4.75;;;;;;;;;;4935197;28;20070;-73
2022/03/09 03:27:31;;;;;;;4.95;4.05;;;;;;;;;;4935237;29;20087;-73
2022/03/09 03:29:58;;;;;;;6.45;4.88;;;;;;;;;;4935159;29;20067;-73
2022/03/09 03:32:24;;;;;;;5.85;4.63;;;;;;;;;;4934779;29;20450;-73
2022/03/09 03:34:50;;;;;;;5.78;4.50;;;;;;;;;;4935490;29;20027;-73
2022/03/09 03:37:16;;;;;;;5.25;4.50;;;;;;;;;;4934992;29;20071;-73
2022/03/09 03:39:42;;;;;;;5.70;4.30;;;;;;;;;;4934859;29;20039;-73
2022/03/09 03:42:08;;;;;;;5.55;4.80;;;;;;;;;;4933451;29;20487;-72
2022/03/09 03:44:34;;;;;;;6.10;4.68;;;;;;;;;;4935184;29;20067;-71
2022/03/09 03:47:00;;;;;;;5.40;4.53;;;;;;;;;;4935536;29;20068;-71
2022/03/09 03:49:26;;;;;;;6.53;5.20;;;;;;;;;;4934946;29;20043;-71
2022/03/09 03:51:52;;;;;;;5.30;4.80;;;;;;;;;;4934678;29;20104;-71
2022/03/09 03:54:18;;;;;;;5.47;4.57;;;;;;;;;;4934949;29;20032;-71
2022/03/09 03:56:46;;;;;;;5.28;4.68;;;;;;;;;;4935768;28;20028;-71
2022/03/09 03:59:12;;;;;;;5.75;4.95;;;;;;;;;;4965673;28;20035;-71
2022/03/09 04:01:38;;;;;;;5.90;4.80;;;;;;;;;;4965057;28;20127;-71
2022/03/09 04:04:05;;;;;;;4.68;4.22;;;;;;;;;;4934973;29;20177;-71
2022/03/09 04:06:31;;;;;;;5.25;4.55;;;;;;;;;;4935009;29;20126;-71
2022/03/09 04:08:57;;;;;;;6.83;5.10;;;;;;;;;;4938038;28;20108;-71
2022/03/09 04:11:23;;;;;;;6.75;5.07;;;;;;;;;;4937825;28;20518;-72
2022/03/09 04:13:49;;;;;;;5.63;4.90;;;;;;;;;;4938194;29;20103;-72
2022/03/09 04:16:15;;;;;;;6.70;4.70;;;;;;;;;;4938277;29;20023;-72
2022/03/09 04:18:41;;;;;;;6.45;5.10;;;;;;;;;;4938820;29;20099;-72
2022/03/09 04:21:08;;;;;;;6.85;4.85;;;;;;;;;;4938149;29;20122;-72
2022/03/09 04:23:34;;;;;;;5.13;4.45;;;;;;;;;;4937506;28;20034;-72
2022/03/09 04:26:00;;;;;;;5.20;4.57;;;;;;;;;;4937942;28;20051;-72
2022/03/09 04:28:26;;;;;;;5.68;5.00;;;;;;;;;;4938370;29;20031;-72
2022/03/09 04:30:53;;;;;;;5.43;4.45;;;;;;;;;;4938403;29;20039;-73
2022/03/09 04:33:19;;;;;;;5.80;5.20;;;;;;;;;;4938079;29;20024;-73
2022/03/09 04:35:45;;;;;;;5.25;4.43;;;;;;;;;;4938035;29;20032;-74
2022/03/09 04:38:11;;;;;;;6.22;5.25;;;;;;;;;;4938629;29;20487;-74
2022/03/09 04:40:38;;;;;;;4.60;4.13;;;;;;;;;;4938455;29;20031;-74
2022/03/09 04:43:04;;;;;;;6.35;5.20;;;;;;;;;;4938594;29;20099;-74
2022/03/09 04:45:30;;;;;;;6.38;4.97;;;;;;;;;;4938526;28;20423;-74
2022/03/09 04:47:56;;;;;;;6.18;4.90;;;;;;;;;;4938669;28;20046;-74
2022/03/09 04:50:22;;;;;;;5.13;4.28;;;;;;;;;;4938457;28;20031;-74
2022/03/09 04:52:48;;;;;;;7.47;5.18;;;;;;;;;;4938622;29;20476;-74
2022/03/09 04:55:15;;;;;;;6.13;5.47;;;;;;;;;;4938122;29;20451;-74
2022/03/09 04:57:41;;;;;;;5.25;4.72;;;;;;;;;;4937922;29;20023;-74
2022/03/09 05:00:08;;;;;;;6.80;5.10;;;;;;;;;;4938260;29;20107;-74
2022/03/09 05:02:34;;;;;;;6.75;5.10;;;;;;;;;;4938218;29;20416;-74
2022/03/09 05:05:00;;;;;;;5.88;4.57;;;;;;;;;;4937566;29;20134;-74
2022/03/09 05:07:26;;;;;;;5.45;4.90;;;;;;;;;;4937987;29;20063;-75
2022/03/09 05:09:53;;;;;;;5.97;5.22;;;;;;;;;;4938005;29;20059;-74
2022/03/09 05:15:22;;;;;;;6.67;5.30;;;;;;;;;;4937941;29;20066;-74
2022/03/09 05:17:48;;;;;;;6.30;4.95;;;;;;;;;;4938060;29;20466;-74
2022/03/09 05:20:17;;;;;;;7.45;5.22;;;;;;;;;;4936577;29;20517;-74
2022/03/09 05:22:43;;;;;;;5.93;5.15;;;;;;;;;;4937931;29;20098;-74
2022/03/09 05:25:10;;;;;;;5.63;4.85;;;;;;;;;;4937217;29;20032;-74
2022/03/09 05:27:36;;;;;;;6.30;5.32;;;;;;;;;;4937482;29;20023;-74
2022/03/09 05:30:02;;;;;;;5.97;4.63;;;;;;;;;;4937392;28;20091;-74
2022/03/09 05:32:28;;;;;;;5.20;4.70;;;;;;;;;;4937062;28;20023;-74
2022/03/09 05:34:54;;;;;;;6.90;5.80;;;;;;;;;;4938045;29;20028;-75
2022/03/09 05:37:22;;;;;;;6.90;5.05;;;;;;;;;;4968006;28;20023;-75
2022/03/09 05:39:48;;;;;;;5.53;4.85;;;;;;;;;;4968164;28;20071;-75
2022/03/09 05:42:15;;;;;;;6.40;4.90;;;;;;;;;;4936825;29;20123;-75
2022/03/09 05:44:41;;;;;;;5.60;5.10;;;;;;;;;;4937535;29;20510;-75
2022/03/09 05:47:07;;;;;;;5.13;4.55;;;;;;;;;;4937311;29;20028;-75
2022/03/09 05:49:33;;;;;;;6.65;4.82;;;;;;;;;;4936832;29;20039;-75
2022/03/09 05:52:00;;;;;;;6.10;5.13;;;;;;;;;;4935932;29;20019;-75
2022/03/09 05:54:26;;;;;;;6.25;5.20;;;;;;;;;;4936556;29;20075;-75
2022/03/09 05:56:52;;;;;;;5.97;4.93;;;;;;;;;;4936590;28;20103;-75
2022/03/09 05:59:18;;;;;;;5.50;4.28;;;;;;;;;;4936822;28;20053;-75
2022/03/09 06:01:44;;;;;;;5.80;5.20;;;;;;;;;;4936150;29;20028;-75
2022/03/09 06:04:10;;;;;;;4.97;4.47;;;;;;;;;;4935945;28;20052;-75
2022/03/09 06:06:36;;;;;;;5.57;4.97;;;;;;;;;;4936376;28;20059;-75
2022/03/09 06:09:02;;;;;;;5.07;4.57;;;;;;;;;;4937065;28;20039;-75
2022/03/09 06:11:28;;;;;;;5.47;4.95;;;;;;;;;;4966326;28;20028;-75
2022/03/09 06:13:54;;;;;;;5.15;4.65;;;;;;;;;;4936115;29;20074;-75
2022/03/09 06:16:21;;;;;;;6.47;5.38;;;;;;;;;;4936032;28;20070;-75
2022/03/09 06:18:47;;;;;;;6.00;4.95;;;;;;;;;;4935898;29;20435;-76
2022/03/09 06:21:13;;;;;;;6.25;5.32;;;;;;;;;;4936159;29;20506;-76
2022/03/09 06:23:40;;;;;;;6.90;5.30;;;;;;;;;;4935527;29;20228;-75
2022/03/09 06:26:06;;;;;;;5.45;4.78;;;;;;;;;;4936175;28;20455;-75
2022/03/09 06:28:32;;;;;;;6.93;4.97;;;;;;;;;;4936063;29;20102;-75
2022/03/09 06:30:58;;;;;;;6.40;5.03;;;;;;;;;;4935524;28;20039;-73
2022/03/09 06:33:25;;;;;;;6.03;4.75;;;;;;;;;;4936075;28;20054;-73
2022/03/09 06:35:51;;;;;;;5.70;4.85;;;;;;;;;;4936324;28;20035;-73
2022/03/09 06:38:17;;;;;;;6.78;4.93;;;;;;;;;;4935416;28;20079;-75
2022/03/09 06:40:44;;;;;;;5.50;4.65;;;;;;;;;;4935903;28;20028;-75
2022/03/09 06:43:10;;;;;;;5.28;4.55;;;;;;;;;;4935693;29;20107;-75
2022/03/09 06:45:36;;;;;;;5.85;5.25;;;;;;;;;;4936224;29;20487;-75
2022/03/09 06:48:03;;;;;;;5.75;5.13;;;;;;;;;;4935754;29;20099;-75
2022/03/09 06:50:29;;;;;;;5.88;4.80;;;;;;;;;;4935777;29;20395;-75
2022/03/09 06:52:55;;;;;;;5.50;4.90;;;;;;;;;;4935986;29;20593;-75
2022/03/09 06:55:22;;;;;;;6.00;5.35;;;;;;;;;;4935932;28;20087;-72
2022/03/09 06:57:48;;;;;;;4.45;4.00;;;;;;;;;;4935917;29;20454;-72
2022/03/09 07:00:15;;;;;;;5.47;4.88;;;;;;;;;;4935933;29;20027;-72
2022/03/09 07:02:41;;;;;;;5.85;5.22;;;;;;;;;;4935647;29;20513;-72
2022/03/09 07:05:08;;;;;;;5.18;4.68;;;;;;;;;;4935364;28;20079;-72
2022/03/09 07:07:34;;;;;;;5.40;4.90;;;;;;;;;;4935344;29;20028;-72
2022/03/09 07:10:00;;;;;;;5.88;4.78;;;;;;;;;;4966596;28;20521;-73
2022/03/09 07:12:26;;;;;;;5.72;5.13;;;;;;;;;;4935000;28;20031;-73
2022/03/09 07:14:53;;;;;;;5.63;5.03;;;;;;;;;;4935391;29;20028;-73
2022/03/09 07:17:19;;;;;;;5.60;5.00;;;;;;;;;;4934975;28;20111;-73
2022/03/09 07:19:45;;;;;;;6.75;4.75;;;;;;;;;;4935016;29;20107;-73
2022/03/09 07:22:11;;;;;;;6.30;5.07;;;;;;;;;;4965864;28;20124;-73
2022/03/09 07:24:37;;;;;;;6.68;5.10;;;;;;;;;;4965728;28;20063;-73
2022/03/09 07:27:04;;;;;;;6.40;5.32;;;;;;;;;;4935291;29;20028;-73
2022/03/09 07:29:30;;;;;;;5.47;4.93;;;;;;;;;;4935278;29;20032;-73
2022/03/09 07:31:56;;;;;;;5.53;5.00;;;;;;;;;;4934843;29;20032;-73
2022/03/09 07:34:23;;;;;;;6.45;5.53;;;;;;;;;;4935360;29;20038;-71
2022/03/09 07:36:52;;;;;;;5.93;4.72;;;;;;;;;;4935574;29;20064;-72
2022/03/09 07:39:19;;;;;;;6.45;5.03;;;;;;;;;;4933849;29;20028;-71
2022/03/09 07:41:45;;;;;;;6.40;5.32;;;;;;;;;;4933543;29;20055;-72
2022/03/09 07:44:11;;;;;;;7.43;5.03;;;;;;;;;;4938897;29;20434;-72
2022/03/09 07:46:37;;;;;;;5.95;5.35;;;;;;;;;;4939059;29;20031;-72
2022/03/09 07:49:04;;;;;;;7.35;5.55;;;;;;;;;;4938801;29;20031;-74
2022/03/09 07:51:30;;;;;;;5.95;4.82;;;;;;;;;;4938006;29;20031;-71
2022/03/09 07:53:56;;;;;;;6.63;5.28;;;;;;;;;;4938833;29;20087;-72
2022/03/09 07:56:22;;;;;;;5.85;4.85;;;;;;;;;;4939235;29;20119;-72
2022/03/09 07:58:48;;;;;;;6.57;5.00;;;;;;;;;;4939064;29;20511;-72
2022/03/09 08:01:14;;;;;;;5.35;4.70;;;;;;;;;;4938572;29;20087;-72
2022/03/09 08:03:40;;;;;;;11.48;5.43;;;;;;;;;;4935970;29;20055;-71
2022/03/09 08:06:06;;;;;;;15.90;6.30;;;;;;;;;;4936102;29;20082;-71
2022/03/09 08:08:33;;;;;;;9.30;6.05;;;;;;;;;;4935681;28;20110;-71
2022/03/09 08:10:59;;;;;;;9.00;6.75;;;;;;;;;;4933529;29;20561;-70
2022/03/09 08:13:25;;;;;;;11.48;6.43;;;;;;;;;;4929408;29;20031;-71
2022/03/09 08:15:51;;;;;;;16.05;6.82;;;;;;;;;;4934585;29;20160;-73
2022/03/09 08:18:18;;;;;;;12.40;6.10;;;;;;;;;;4932467;29;20032;-72
2022/03/09 08:20:44;;;;;;;16.67;7.18;;;;;;;;;;4933867;28;20506;-73
2022/03/09 08:23:10;;;;;;;13.82;8.88;;;;;;;;;;4931905;29;20067;-74
2022/03/09 08:25:36;;;;;;;21.02;13.38;;;;;;;;;;4932306;29;20067;-77
2022/03/09 08:28:02;;;;;;;32.20;21.50;;;;;;;;;;4931919;29;20452;-74
2022/03/09 08:30:29;;;;;;;28.95;18.08;;;;;;;;;;4932895;29;20024;-74
2022/03/09 08:32:55;;;;;;;23.00;15.77;;;;;;;;;;4930305;29;20035;-73
2022/03/09 08:35:22;;;;;;;20.67;13.30;;;;;;;;;;4929842;29;20078;-73
2022/03/09 08:37:49;;;;;;;16.95;12.70;;;;;;;;;;4931937;29;20051;-76
2022/03/09 08:40:15;;;;;;;21.75;10.88;;;;;;;;;;4931737;29;20178;-75
2022/03/09 08:42:41;;;;;;;22.48;13.55;;;;;;;;;;4932259;29;20033;-76
2022/03/09 08:45:08;;;;;;;18.10;13.95;;;;;;;;;;4934690;29;20431;-75
2022/03/09 08:47:34;;;;;;;24.08;17.33;;;;;;;;;;4931160;29;20036;-76
2022/03/09 08:50:00;;;;;;;20.27;11.82;;;;;;;;;;4931881;28;20122;-78
2022/03/09 08:52:26;;;;;;;22.42;13.90;;;;;;;;;;4938931;28;20534;-74
2022/03/09 08:54:53;;;;;;;20.42;15.55;;;;;;;;;;4942070;28;20057;-76
2022/03/09 08:57:23;;;;;;;20.88;11.95;;;;;;;;;;4938783;29;20076;-73
2022/03/09 08:59:49;;;;;;;23.02;12.88;;;;;;;;;;4931311;29;20514;-74
2022/03/09 09:02:15;;;;;;;19.08;12.52;;;;;;;;;;4943254;28;20050;-74
2022/03/09 09:04:42;;;;;;;18.95;10.40;;;;;;;;;;4936767;28;20122;-73
2022/03/09 09:07:08;;;;;;;19.02;12.15;;;;;;;;;;4931748;29;20717;-76
2022/03/09 09:09:34;;;;;;;17.70;11.75;;;;;;;;;;4940110;28;20028;-74
2022/03/09 09:12:01;;;;;;;13.57;10.20;;;;;;;;;;4933034;29;20020;-73
2022/03/09 09:14:28;;;;;;;21.38;9.40;;;;;;;;;;4935680;29;20026;-74
2022/03/09 09:16:54;;;;;;;14.40;10.30;;;;;;;;;;4929127;29;20024;-75
2022/03/09 09:19:20;;;;;;;15.20;11.82;;;;;;;;;;4930559;29;20132;-76
2022/03/09 09:21:47;;;;;;;18.25;9.95;;;;;;;;;;4931072;29;20024;-75
2022/03/09 09:24:13;;;;;;;17.08;9.73;;;;;;;;;;4944297;28;20019;-73
2022/03/09 09:26:39;;;;;;;13.10;9.05;;;;;;;;;;4936864;29;20035;-73
2022/03/09 09:29:07;;;;;;;16.98;10.77;;;;;;;;;;4936622;29;20031;-75
2022/03/09 09:31:33;;;;;;;18.83;10.50;;;;;;;;;;4939276;28;20031;-75
2022/03/09 09:34:08;;;;;;;16.88;10.70;;;;;;;;;;4933348;28;20035;-74
2022/03/09 09:36:35;;;;;;;13.93;9.63;;;;;;;;;;4930448;29;20062;-76
2022/03/09 09:39:02;;;;;;;16.65;10.23;;;;;;;;;;4946889;28;20032;-75
2022/03/09 09:41:29;;;;;;;23.75;11.75;;;;;;;;;;4938713;29;20032;-75
2022/03/09 09:43:55;;;;;;;21.00;12.30;;;;;;;;;;4940162;29;20078;-75
2022/03/09 09:46:21;;;;;;;23.00;12.98;;;;;;;;;;4935139;29;20436;-74
2022/03/09 09:48:48;;;;;;;22.10;11.27;;;;;;;;;;4939074;29;20031;-75
2022/03/09 09:51:14;;;;;;;22.58;10.30;;;;;;;;;;4949744;28;20059;-75
2022/03/09 09:53:43;;;;;;;21.80;11.23;;;;;;;;;;4985960;28;20027;-75
2022/03/09 09:56:10;;;;;;;30.52;13.25;;;;;;;;;;4938596;29;20015;-76
2022/03/09 09:58:41;;;;;;;28.52;14.02;;;;;;;;;;4929744;29;20503;-76
2022/03/09 10:01:07;;;;;;;29.08;14.70;;;;;;;;;;4939366;29;20024;-75
2022/03/09 10:03:33;;;;;;;25.65;13.00;;;;;;;;;;4936627;28;20093;-75
2022/03/09 10:06:00;;;;;;;21.48;11.32;;;;;;;;;;4936012;28;20133;-71
2022/03/09 10:08:26;;;;;;;17.67;9.65;;;;;;;;;;4935588;29;20039;-74
2022/03/09 10:10:56;;;;;;;20.48;11.38;;;;;;;;;;4968898;28;20035;-73
2022/03/09 10:13:24;;;;;;;19.73;10.80;;;;;;;;;;4930549;29;20035;-77
2022/03/09 10:16:11;;;;;;;18.15;9.07;;;;;;;;;;4929008;29;20414;-72
2022/03/09 10:18:37;;;;;;;19.27;10.15;;;;;;;;;;4938286;29;20043;-75
2022/03/09 10:21:17;;;;;;;14.48;9.00;;;;;;;;;;4938694;29;20039;-74
2022/03/09 10:23:57;;;;;;;20.20;10.82;;;;;;;;;;4931591;29;20077;-73
2022/03/09 10:26:24;;;;;;;15.60;10.65;;;;;;;;;;4939296;28;20579;-72
2022/03/09 10:28:57;;;;;;;13.73;8.35;;;;;;;;;;4932922;29;20062;-73
2022/03/09 10:31:33;;;;;;;18.58;9.45;;;;;;;;;;4933668;29;20050;-72
2022/03/09 10:34:14;;;;;;;10.95;7.07;;;;;;;;;;4933193;28;20031;-72
2022/03/09 10:37:01;;;;;;;16.95;8.40;;;;;;;;;;4929697;29;20032;-74
2022/03/09 10:39:29;;;;;;;18.52;9.38;;;;;;;;;;4936344;29;20039;-74
2022/03/09 10:41:58;;;;;;;22.42;11.35;;;;;;;;;;4954032;28;20039;-73
2022/03/09 10:44:42;;;;;;;17.10;7.90;;;;;;;;;;4931938;29;20529;-73
2022/03/09 10:47:10;;;;;;;17.58;9.20;;;;;;;;;;4932392;29;20031;-74
2022/03/09 10:49:36;;;;;;;23.08;8.63;;;;;;;;;;4947634;29;20086;-73
2022/03/09 10:52:03;;;;;;;22.02;9.38;;;;;;;;;;4942456;28;20035;-75
2022/03/09 10:54:30;;;;;;;21.30;8.40;;;;;;;;;;4952430;28;20050;-72
2022/03/09 10:57:07;;;;;;;15.65;7.50;;;;;;;;;;4938293;28;20031;-72
2022/03/09 10:59:44;;;;;;;15.90;8.27;;;;;;;;;;4953479;28;20038;-73
2022/03/09 11:02:11;;;;;;;17.60;8.20;;;;;;;;;;4944664;29;20035;-73
2022/03/09 11:04:38;;;;;;;16.40;7.75;;;;;;;;;;4931087;29;20052;-74
2022/03/09 11:07:05;;;;;;;11.10;6.70;;;;;;;;;;4941621;28;20023;-72
2022/03/09 11:09:31;;;;;;;14.45;7.35;;;;;;;;;;4937708;28;20559;-72
2022/03/09 11:11:58;;;;;;;10.95;7.00;;;;;;;;;;4930771;29;20039;-73
2022/03/09 11:14:29;;;;;;;16.80;7.85;;;;;;;;;;4938101;29;20039;-76
2022/03/09 11:17:00;;;;;;;10.80;6.82;;;;;;;;;;4941273;28;20026;-76
2022/03/09 11:19:27;;;;;;;12.77;7.53;;;;;;;;;;4952667;28;20032;-74
2022/03/09 11:21:54;;;;;;;13.73;7.43;;;;;;;;;;4945728;28;20605;-74
2022/03/09 11:24:20;;;;;;;12.50;7.45;;;;;;;;;;4935373;29;20024;-74
2022/03/09 11:26:53;;;;;;;10.82;6.90;;;;;;;;;;4938987;29;20693;-74
2022/03/09 11:29:34;;;;;;;8.52;5.82;;;;;;;;;;4945473;28;20107;-75
2022/03/09 11:32:01;;;;;;;8.10;5.82;;;;;;;;;;4965604;28;20055;-76
2022/03/09 11:34:31;;;;;;;10.50;7.13;;;;;;;;;;4937950;29;20459;-76
2022/03/09 11:37:00;;;;;;;11.98;6.72;;;;;;;;;;4953320;28;20055;-75
2022/03/09 11:39:27;;;;;;;8.98;6.07;;;;;;;;;;4934902;29;20172;-76
2022/03/09 11:42:19;;;;;;;10.55;7.00;;;;;;;;;;4932068;29;20115;-75
2022/03/09 11:44:46;;;;;;;11.65;6.88;;;;;;;;;;4933832;29;20036;-72
2022/03/09 11:47:12;;;;;;;7.35;5.03;;;;;;;;;;4966649;28;20095;-71
2022/03/09 11:49:52;;;;;;;9.93;6.97;;;;;;;;;;4935981;29;20032;-76
2022/03/09 11:52:23;;;;;;;11.18;7.15;;;;;;;;;;4935716;29;20027;-75
2022/03/09 11:54:55;;;;;;;11.25;6.05;;;;;;;;;;4941516;29;20039;-77
2022/03/09 11:57:23;;;;;;;9.70;6.35;;;;;;;;;;4936075;29;20027;-76
2022/03/09 12:00:04;;;;;;;10.50;6.80;;;;;;;;;;4936365;29;20024;-75
2022/03/09 12:02:42;;;;;;;9.10;6.70;;;;;;;;;;4933943;29;20123;-75
2022/03/09 12:05:31;;;;;;;11.50;7.30;;;;;;;;;;4939760;29;20065;-74
2022/03/09 12:08:03;;;;;;;6.80;5.63;;;;;;;;;;4941637;29;20046;-73
2022/03/09 12:10:43;;;;;;;12.27;6.38;;;;;;;;;;4940477;28;20051;-74
2022/03/09 12:13:09;;;;;;;9.15;6.43;;;;;;;;;;4941365;29;20023;-74
2022/03/09 12:15:54;;;;;;;11.55;7.43;;;;;;;;;;4941831;28;20055;-73
2022/03/09 12:18:39;;;;;;;10.88;6.88;;;;;;;;;;4940541;29;20062;-73
2022/03/09 12:21:06;;;;;;;13.77;9.57;;;;;;;;;;4942893;29;20035;-73
2022/03/09 12:23:33;;;;;;;10.35;7.88;;;;;;;;;;4940823;28;20038;-73
2022/03/09 12:26:01;;;;;;;14.13;6.38;;;;;;;;;;4971205;28;20028;-73
2022/03/09 12:28:34;;;;;;;14.10;6.00;;;;;;;;;;4953449;28;20138;-73
2022/03/09 12:31:15;;;;;;;10.70;5.80;;;;;;;;;;4936636;29;20079;-74
2022/03/09 12:33:42;;;;;;;14.50;9.45;;;;;;;;;;4968384;28;20036;-74
2022/03/09 12:36:13;;;;;;;18.35;10.00;;;;;;;;;;4937486;28;20039;-74
2022/03/09 12:38:39;;;;;;;14.25;7.95;;;;;;;;;;4935206;29;20027;-73
2022/03/09 12:41:05;;;;;;;14.55;9.82;;;;;;;;;;4965596;28;20472;-76
2022/03/09 12:43:50;;;;;;;11.38;7.18;;;;;;;;;;4936334;29;20063;-76
2022/03/09 12:46:17;;;;;;;16.38;10.05;;;;;;;;;;4960890;28;20027;-76
2022/03/09 12:48:43;;;;;;;13.45;8.07;;;;;;;;;;4936079;29;20031;-75
2022/03/09 12:51:09;;;;;;;12.55;8.20;;;;;;;;;;4937206;29;20043;-74
2022/03/09 12:53:37;;;;;;;15.70;8.40;;;;;;;;;;4937219;28;20030;-75
2022/03/09 12:56:20;;;;;;;18.65;7.50;;;;;;;;;;4937759;28;20024;-76
2022/03/09 12:58:47;;;;;;;16.77;8.60;;;;;;;;;;4967848;28;20040;-77
2022/03/09 13:01:14;;;;;;;14.70;9.52;;;;;;;;;;4937626;28;20040;-76
2022/03/09 13:03:41;;;;;;;14.27;7.65;;;;;;;;;;4938375;28;20043;-76
2022/03/09 13:06:21;;;;;;;16.90;6.75;;;;;;;;;;4942128;28;20119;-77
2022/03/09 13:08:47;;;;;;;11.27;6.90;;;;;;;;;;4936434;29;20031;-77
2022/03/09 13:11:26;;;;;;;11.15;5.75;;;;;;;;;;4935920;28;20046;-77
2022/03/09 13:13:53;;;;;;;10.65;5.28;;;;;;;;;;4933639;29;20028;-76
2022/03/09 13:16:21;;;;;;;10.52;5.28;;;;;;;;;;4936185;29;20399;-74
2022/03/09 13:18:47;;;;;;;11.57;5.55;;;;;;;;;;4936072;29;20030;-75
2022/03/09 13:21:13;;;;;;;9.43;5.00;;;;;;;;;;4934602;29;20043;-75
2022/03/09 13:23:43;;;;;;;8.65;4.95;;;;;;;;;;4931720;29;20050;-71
2022/03/09 13:26:12;;;;;;;10.80;4.65;;;;;;;;;;4933417;29;20078;-72
2022/03/09 13:28:39;;;;;;;6.55;4.80;;;;;;;;;;4933847;29;20039;-72
2022/03/09 13:31:05;;;;;;;8.60;5.03;;;;;;;;;;4934010;29;20032;-70
2022/03/09 13:33:31;;;;;;;11.50;5.57;;;;;;;;;;4932446;29;20030;-71
2022/03/09 13:35:58;;;;;;;6.43;4.50;;;;;;;;;;4934744;29;20196;-71
2022/03/09 13:38:29;;;;;;;11.45;5.72;;;;;;;;;;4935834;28;20066;-70
2022/03/09 13:41:02;;;;;;;7.45;4.75;;;;;;;;;;4934980;29;20103;-72
2022/03/09 13:43:28;;;;;;;;;;;;;;;;;;4932785;29;20416;-71
2022/03/09 13:45:55;;;;;;;8.23;5.15;;;;;;;;;;4933078;29;19907;-71
2022/03/09 13:48:25;;;;;;;6.70;4.30;;;;;;;;;;4932335;29;20815;-71
2022/03/09 13:51:00;;;;;;;8.43;5.15;;;;;;;;;;4933291;29;20122;-71
2022/03/09 13:53:31;;;;;;;5.43;4.25;;;;;;;;;;4931700;29;20031;-71
2022/03/09 13:55:58;;;;;;;7.28;4.28;;;;;;;;;;4933478;29;20102;-71
2022/03/09 13:58:26;;;;;;;7.75;4.93;;;;;;;;;;4932741;29;20054;-71
2022/03/09 14:01:03;;;;;;;11.50;4.97;;;;;;;;;;4933563;29;20035;-71
2022/03/09 14:03:29;;;;;;;8.80;4.60;;;;;;;;;;4930877;29;20047;-71
2022/03/09 14:05:56;;;;;;;8.38;4.57;;;;;;;;;;4938023;28;20415;-71
2022/03/09 14:08:40;;;;;;;8.68;4.70;;;;;;;;;;4933139;29;20091;-71
2022/03/09 14:11:17;;;;;;;6.13;3.97;;;;;;;;;;4932067;29;20055;-71
2022/03/09 14:14:02;;;;;;;9.20;5.05;;;;;;;;;;4925748;29;20027;-71
2022/03/09 14:16:29;;;;;;;8.55;4.40;;;;;;;;;;4929338;29;20400;-71
2022/03/09 14:18:56;;;;;;;5.70;4.35;;;;;;;;;;4947189;28;20032;-71
2022/03/09 14:21:23;;;;;;;8.15;5.25;;;;;;;;;;4932109;29;20114;-72
2022/03/09 14:23:49;;;;;;;7.65;4.72;;;;;;;;;;4932955;29;20028;-70
2022/03/09 14:26:16;;;;;;;7.03;4.53;;;;;;;;;;4934722;29;20032;-71
2022/03/09 14:28:42;;;;;;;8.50;4.53;;;;;;;;;;4919003;29;20036;-71
2022/03/09 14:31:09;;;;;;;7.60;4.68;;;;;;;;;;4918096;29;20036;-71
2022/03/09 14:33:35;;;;;;;6.72;4.63;;;;;;;;;;4918094;29;20531;-71
2022/03/09 14:36:03;;;;;;;8.27;4.28;;;;;;;;;;4916324;29;20500;-71
2022/03/09 14:38:31;;;;;;;8.07;4.15;;;;;;;;;;4926920;29;20391;-71
2022/03/09 14:40:57;;;;;;;5.63;4.40;;;;;;;;;;4933996;29;20035;-71
2022/03/09 14:43:23;;;;;;;6.53;4.30;;;;;;;;;;4934705;29;20027;-71
2022/03/09 14:45:50;;;;;;;6.30;4.60;;;;;;;;;;4964910;28;20491;-71